sensor_id;sensor_type;location;lat;lon;timestamp;P1;durP1;ratioP1;P2;durP2;ratioP2
77022;SDS011;65952;51.440;-2.054;2024-01-06T00:01:04;5.82;;;2.15;;
77022;SDS011;65952;51.440;-2.054;2024-01-06T00:03:29;3.40;;;2.00;;
77022;SDS011;65952;51.440;-2.054;2024-01-06T00:05:55;5.72;;;2.38;;
77022;SDS011;65952;51.440;-2.054;2024-01-06T00:08:20;3.83;;;2.13;;
77022;SDS011;65952;51.440;-2.054;2024-01-06T00:10:45;4.85;;;2.30;;
77022;SDS011;65952;51.440;-2.054;2024-01-06T00:13:11;5.43;;;2.20;;
77022;SDS011;65952;51.440;-2.054;2024-01-06T00:15:36;5.72;;;2.33;;
77022;SDS011;65952;51.440;-2.054;2024-01-06T00:18:02;3.67;;;2.08;;
77022;SDS011;65952;51.440;-2.054;2024-01-06T00:20:28;3.65;;;2.08;;
77022;SDS011;65952;51.440;-2.054;2024-01-06T00:22:53;3.42;;;1.70;;
77022;SDS011;65952;51.440;-2.054;2024-01-06T00:25:19;5.38;;;2.10;;
77022;SDS011;65952;51.440;-2.054;2024-01-06T00:27:44;3.65;;;2.03;;
77022;SDS011;65952;51.440;-2.054;2024-01-06T00:30:10;4.78;;;2.00;;
77022;SDS011;65952;51.440;-2.054;2024-01-06T00:32:35;4.25;;;2.00;;
77022;SDS011;65952;51.440;-2.054;2024-01-06T00:35:01;5.57;;;2.10;;
77022;SDS011;65952;51.440;-2.054;2024-01-06T00:37:27;3.92;;;2.00;;
77022;SDS011;65952;51.440;-2.054;2024-01-06T00:39:52;3.85;;;2.00;;
77022;SDS011;65952;51.440;-2.054;2024-01-06T00:42:18;3.30;;;1.80;;
77022;SDS011;65952;51.440;-2.054;2024-01-06T00:44:43;3.60;;;2.13;;
77022;SDS011;65952;51.440;-2.054;2024-01-06T00:47:13;3.25;;;1.90;;
77022;SDS011;65952;51.440;-2.054;2024-01-06T00:50:49;4.68;;;2.00;;
77022;SDS011;65952;51.440;-2.054;2024-01-06T00:53:28;3.72;;;2.00;;
77022;SDS011;65952;51.440;-2.054;2024-01-06T00:55:54;6.47;;;2.40;;
77022;SDS011;65952;51.440;-2.054;2024-01-06T00:58:19;4.75;;;1.90;;
77022;SDS011;65952;51.440;-2.054;2024-01-06T01:00:44;4.40;;;2.20;;
77022;SDS011;65952;51.440;-2.054;2024-01-06T01:03:10;4.50;;;2.00;;
77022;SDS011;65952;51.440;-2.054;2024-01-06T01:05:35;4.65;;;2.08;;
77022;SDS011;65952;51.440;-2.054;2024-01-06T01:08:01;4.65;;;1.98;;
77022;SDS011;65952;51.440;-2.054;2024-01-06T01:10:26;5.28;;;1.90;;
77022;SDS011;65952;51.440;-2.054;2024-01-06T01:12:51;3.50;;;1.80;;
77022;SDS011;65952;51.440;-2.054;2024-01-06T01:15:17;6.07;;;2.60;;
77022;SDS011;65952;51.440;-2.054;2024-01-06T01:17:43;6.63;;;2.00;;
77022;SDS011;65952;51.440;-2.054;2024-01-06T01:20:09;4.22;;;1.95;;
77022;SDS011;65952;51.440;-2.054;2024-01-06T01:22:35;4.60;;;2.10;;
77022;SDS011;65952;51.440;-2.054;2024-01-06T01:25:00;6.10;;;2.00;;
77022;SDS011;65952;51.440;-2.054;2024-01-06T01:27:30;4.90;;;1.90;;
77022;SDS011;65952;51.440;-2.054;2024-01-06T01:29:55;3.88;;;1.95;;
77022;SDS011;65952;51.440;-2.054;2024-01-06T01:32:21;3.30;;;1.90;;
77022;SDS011;65952;51.440;-2.054;2024-01-06T01:34:46;3.63;;;1.85;;
77022;SDS011;65952;51.440;-2.054;2024-01-06T01:37:11;3.70;;;1.90;;
77022;SDS011;65952;51.440;-2.054;2024-01-06T01:39:37;3.90;;;1.80;;
77022;SDS011;65952;51.440;-2.054;2024-01-06T01:42:02;4.68;;;2.35;;
77022;SDS011;65952;51.440;-2.054;2024-01-06T01:44:28;4.40;;;1.95;;
77022;SDS011;65952;51.440;-2.054;2024-01-06T01:46:53;4.43;;;2.00;;
77022;SDS011;65952;51.440;-2.054;2024-01-06T01:49:19;4.38;;;2.00;;
77022;SDS011;65952;51.440;-2.054;2024-01-06T01:51:45;4.80;;;2.20;;
77022;SDS011;65952;51.440;-2.054;2024-01-06T01:54:11;4.20;;;2.08;;
77022;SDS011;65952;51.440;-2.054;2024-01-06T01:56:37;5.28;;;1.80;;
77022;SDS011;65952;51.440;-2.054;2024-01-06T01:59:05;5.18;;;2.03;;
77022;SDS011;65952;51.440;-2.054;2024-01-06T02:01:34;8.02;;;2.35;;
77022;SDS011;65952;51.440;-2.054;2024-01-06T02:03:59;3.50;;;1.70;;
77022;SDS011;65952;51.440;-2.054;2024-01-06T02:06:25;4.25;;;1.90;;
77022;SDS011;65952;51.440;-2.054;2024-01-06T02:08:50;7.30;;;2.00;;
77022;SDS011;65952;51.440;-2.054;2024-01-06T02:11:15;4.97;;;1.90;;
77022;SDS011;65952;51.440;-2.054;2024-01-06T02:13:41;4.57;;;1.90;;
77022;SDS011;65952;51.440;-2.054;2024-01-06T02:16:06;4.65;;;1.80;;
77022;SDS011;65952;51.440;-2.054;2024-01-06T02:18:32;3.20;;;1.80;;
77022;SDS011;65952;51.440;-2.054;2024-01-06T02:20:58;5.30;;;1.90;;
77022;SDS011;65952;51.440;-2.054;2024-01-06T02:23:25;7.35;;;1.95;;
77022;SDS011;65952;51.440;-2.054;2024-01-06T02:25:51;3.67;;;1.80;;
77022;SDS011;65952;51.440;-2.054;2024-01-06T02:28:16;3.28;;;1.60;;
77022;SDS011;65952;51.440;-2.054;2024-01-06T02:30:42;3.10;;;1.60;;
77022;SDS011;65952;51.440;-2.054;2024-01-06T02:33:08;3.53;;;1.80;;
77022;SDS011;65952;51.440;-2.054;2024-01-06T02:35:33;5.53;;;1.88;;
77022;SDS011;65952;51.440;-2.054;2024-01-06T02:37:59;4.50;;;1.70;;
77022;SDS011;65952;51.440;-2.054;2024-01-06T02:40:25;4.05;;;1.75;;
77022;SDS011;65952;51.440;-2.054;2024-01-06T02:42:51;4.68;;;1.65;;
77022;SDS011;65952;51.440;-2.054;2024-01-06T02:45:16;4.85;;;1.90;;
77022;SDS011;65952;51.440;-2.054;2024-01-06T02:47:42;5.75;;;2.42;;
77022;SDS011;65952;51.440;-2.054;2024-01-06T02:50:07;4.97;;;1.90;;
77022;SDS011;65952;51.440;-2.054;2024-01-06T02:52:33;3.03;;;1.58;;
77022;SDS011;65952;51.440;-2.054;2024-01-06T02:54:58;4.55;;;1.75;;
77022;SDS011;65952;51.440;-2.054;2024-01-06T02:57:24;3.97;;;1.77;;
77022;SDS011;65952;51.440;-2.054;2024-01-06T02:59:49;3.83;;;1.80;;
77022;SDS011;65952;51.440;-2.054;2024-01-06T03:02:15;3.97;;;1.70;;
77022;SDS011;65952;51.440;-2.054;2024-01-06T03:04:41;4.47;;;1.73;;
77022;SDS011;65952;51.440;-2.054;2024-01-06T03:07:07;4.80;;;1.70;;
77022;SDS011;65952;51.440;-2.054;2024-01-06T03:09:36;3.83;;;1.80;;
77022;SDS011;65952;51.440;-2.054;2024-01-06T03:12:03;3.63;;;1.95;;
77022;SDS011;65952;51.440;-2.054;2024-01-06T03:14:31;4.53;;;1.90;;
77022;SDS011;65952;51.440;-2.054;2024-01-06T03:16:56;4.10;;;2.10;;
77022;SDS011;65952;51.440;-2.054;2024-01-06T03:19:23;4.57;;;1.75;;
77022;SDS011;65952;51.440;-2.054;2024-01-06T03:21:51;4.63;;;1.90;;
77022;SDS011;65952;51.440;-2.054;2024-01-06T03:24:16;3.75;;;1.80;;
77022;SDS011;65952;51.440;-2.054;2024-01-06T03:26:42;7.07;;;2.00;;
77022;SDS011;65952;51.440;-2.054;2024-01-06T03:29:07;4.10;;;1.73;;
77022;SDS011;65952;51.440;-2.054;2024-01-06T03:31:32;5.38;;;2.20;;
77022;SDS011;65952;51.440;-2.054;2024-01-06T03:33:58;4.95;;;2.10;;
77022;SDS011;65952;51.440;-2.054;2024-01-06T03:36:23;4.55;;;2.00;;
77022;SDS011;65952;51.440;-2.054;2024-01-06T03:38:49;5.55;;;1.80;;
77022;SDS011;65952;51.440;-2.054;2024-01-06T03:41:14;3.80;;;1.73;;
77022;SDS011;65952;51.440;-2.054;2024-01-06T03:43:39;5.00;;;1.75;;
77022;SDS011;65952;51.440;-2.054;2024-01-06T03:46:05;3.25;;;2.05;;
77022;SDS011;65952;51.440;-2.054;2024-01-06T03:48:31;4.68;;;1.92;;
77022;SDS011;65952;51.440;-2.054;2024-01-06T03:50:57;4.47;;;1.75;;
77022;SDS011;65952;51.440;-2.054;2024-01-06T03:53:24;4.20;;;1.80;;
77022;SDS011;65952;51.440;-2.054;2024-01-06T03:55:49;5.13;;;1.95;;
77022;SDS011;65952;51.440;-2.054;2024-01-06T03:58:14;5.63;;;2.00;;
77022;SDS011;65952;51.440;-2.054;2024-01-06T04:00:40;4.40;;;1.95;;
77022;SDS011;65952;51.440;-2.054;2024-01-06T04:03:05;7.20;;;1.83;;
77022;SDS011;65952;51.440;-2.054;2024-01-06T04:05:31;6.10;;;2.47;;
77022;SDS011;65952;51.440;-2.054;2024-01-06T04:07:57;8.02;;;1.70;;
77022;SDS011;65952;51.440;-2.054;2024-01-06T04:10:25;4.53;;;1.80;;
77022;SDS011;65952;51.440;-2.054;2024-01-06T04:12:51;6.32;;;2.00;;
77022;SDS011;65952;51.440;-2.054;2024-01-06T04:15:16;6.13;;;1.90;;
77022;SDS011;65952;51.440;-2.054;2024-01-06T04:17:42;6.72;;;2.05;;
77022;SDS011;65952;51.440;-2.054;2024-01-06T04:20:07;4.88;;;1.90;;
77022;SDS011;65952;51.440;-2.054;2024-01-06T04:22:33;5.30;;;1.92;;
77022;SDS011;65952;51.440;-2.054;2024-01-06T04:24:58;5.28;;;2.00;;
77022;SDS011;65952;51.440;-2.054;2024-01-06T04:27:24;7.85;;;2.03;;
77022;SDS011;65952;51.440;-2.054;2024-01-06T04:29:49;5.18;;;2.00;;
77022;SDS011;65952;51.440;-2.054;2024-01-06T04:32:18;4.40;;;2.00;;
77022;SDS011;65952;51.440;-2.054;2024-01-06T04:34:43;3.70;;;2.05;;
77022;SDS011;65952;51.440;-2.054;2024-01-06T04:37:09;5.88;;;1.90;;
77022;SDS011;65952;51.440;-2.054;2024-01-06T04:39:34;4.07;;;1.90;;
77022;SDS011;65952;51.440;-2.054;2024-01-06T04:42:00;4.45;;;1.75;;
77022;SDS011;65952;51.440;-2.054;2024-01-06T04:44:25;5.93;;;2.10;;
77022;SDS011;65952;51.440;-2.054;2024-01-06T04:46:50;5.35;;;1.73;;
77022;SDS011;65952;51.440;-2.054;2024-01-06T04:49:16;3.95;;;1.85;;
77022;SDS011;65952;51.440;-2.054;2024-01-06T04:51:41;4.63;;;2.00;;
77022;SDS011;65952;51.440;-2.054;2024-01-06T04:54:07;5.13;;;1.77;;
77022;SDS011;65952;51.440;-2.054;2024-01-06T04:56:32;3.42;;;1.73;;
77022;SDS011;65952;51.440;-2.054;2024-01-06T04:58:57;6.80;;;1.98;;
77022;SDS011;65952;51.440;-2.054;2024-01-06T05:01:23;13.30;;;3.45;;
77022;SDS011;65952;51.440;-2.054;2024-01-06T05:03:49;7.68;;;2.13;;
77022;SDS011;65952;51.440;-2.054;2024-01-06T05:06:14;5.22;;;1.95;;
77022;SDS011;65952;51.440;-2.054;2024-01-06T05:08:40;9.00;;;2.60;;
77022;SDS011;65952;51.440;-2.054;2024-01-06T05:11:09;8.27;;;2.38;;
77022;SDS011;65952;51.440;-2.054;2024-01-06T05:13:36;7.65;;;3.40;;
77022;SDS011;65952;51.440;-2.054;2024-01-06T05:16:02;4.68;;;1.85;;
77022;SDS011;65952;51.440;-2.054;2024-01-06T05:18:27;4.72;;;2.00;;
77022;SDS011;65952;51.440;-2.054;2024-01-06T05:20:53;6.80;;;2.00;;
77022;SDS011;65952;51.440;-2.054;2024-01-06T05:23:20;4.15;;;1.75;;
77022;SDS011;65952;51.440;-2.054;2024-01-06T05:25:45;6.00;;;2.00;;
77022;SDS011;65952;51.440;-2.054;2024-01-06T05:28:10;6.10;;;1.90;;
77022;SDS011;65952;51.440;-2.054;2024-01-06T05:30:36;5.50;;;1.98;;
77022;SDS011;65952;51.440;-2.054;2024-01-06T05:33:01;5.75;;;1.88;;
77022;SDS011;65952;51.440;-2.054;2024-01-06T05:35:28;6.00;;;1.90;;
77022;SDS011;65952;51.440;-2.054;2024-01-06T05:37:53;5.22;;;2.05;;
77022;SDS011;65952;51.440;-2.054;2024-01-06T05:40:19;6.90;;;1.90;;
77022;SDS011;65952;51.440;-2.054;2024-01-06T05:42:44;8.30;;;1.95;;
77022;SDS011;65952;51.440;-2.054;2024-01-06T05:45:10;6.10;;;2.13;;
77022;SDS011;65952;51.440;-2.054;2024-01-06T05:47:37;3.88;;;1.75;;
77022;SDS011;65952;51.440;-2.054;2024-01-06T05:50:04;6.38;;;2.05;;
77022;SDS011;65952;51.440;-2.054;2024-01-06T05:52:30;6.50;;;2.30;;
77022;SDS011;65952;51.440;-2.054;2024-01-06T05:54:55;6.20;;;1.90;;
77022;SDS011;65952;51.440;-2.054;2024-01-06T05:57:21;5.95;;;2.25;;
77022;SDS011;65952;51.440;-2.054;2024-01-06T05:59:46;8.32;;;2.20;;
77022;SDS011;65952;51.440;-2.054;2024-01-06T06:02:11;5.88;;;2.03;;
77022;SDS011;65952;51.440;-2.054;2024-01-06T06:04:37;9.50;;;2.63;;
77022;SDS011;65952;51.440;-2.054;2024-01-06T06:07:02;5.50;;;2.28;;
77022;SDS011;65952;51.440;-2.054;2024-01-06T06:09:28;7.63;;;2.30;;
77022;SDS011;65952;51.440;-2.054;2024-01-06T06:11:54;9.35;;;2.95;;
77022;SDS011;65952;51.440;-2.054;2024-01-06T06:14:19;4.97;;;2.47;;
77022;SDS011;65952;51.440;-2.054;2024-01-06T06:16:45;8.93;;;2.13;;
77022;SDS011;65952;51.440;-2.054;2024-01-06T06:19:12;4.78;;;2.05;;
77022;SDS011;65952;51.440;-2.054;2024-01-06T06:21:37;6.30;;;2.10;;
77022;SDS011;65952;51.440;-2.054;2024-01-06T06:24:02;7.28;;;2.35;;
77022;SDS011;65952;51.440;-2.054;2024-01-06T06:26:28;5.80;;;2.00;;
77022;SDS011;65952;51.440;-2.054;2024-01-06T06:28:53;6.95;;;2.20;;
77022;SDS011;65952;51.440;-2.054;2024-01-06T06:31:19;6.07;;;2.38;;
77022;SDS011;65952;51.440;-2.054;2024-01-06T06:33:44;6.05;;;2.20;;
77022;SDS011;65952;51.440;-2.054;2024-01-06T06:36:10;5.55;;;2.00;;
77022;SDS011;65952;51.440;-2.054;2024-01-06T06:38:35;3.72;;;1.95;;
77022;SDS011;65952;51.440;-2.054;2024-01-06T06:41:01;5.50;;;1.92;;
77022;SDS011;65952;51.440;-2.054;2024-01-06T06:43:26;5.38;;;2.08;;
77022;SDS011;65952;51.440;-2.054;2024-01-06T06:45:57;7.38;;;2.10;;
77022;SDS011;65952;51.440;-2.054;2024-01-06T06:48:23;5.72;;;2.05;;
77022;SDS011;65952;51.440;-2.054;2024-01-06T06:50:48;5.63;;;2.15;;
77022;SDS011;65952;51.440;-2.054;2024-01-06T06:53:14;4.88;;;2.30;;
77022;SDS011;65952;51.440;-2.054;2024-01-06T06:55:39;6.00;;;1.90;;
77022;SDS011;65952;51.440;-2.054;2024-01-06T06:58:05;10.32;;;2.25;;
77022;SDS011;65952;51.440;-2.054;2024-01-06T07:00:31;5.00;;;2.20;;
77022;SDS011;65952;51.440;-2.054;2024-01-06T07:02:57;9.20;;;2.72;;
77022;SDS011;65952;51.440;-2.054;2024-01-06T07:05:23;10.43;;;3.72;;
77022;SDS011;65952;51.440;-2.054;2024-01-06T07:07:49;6.90;;;2.28;;
77022;SDS011;65952;51.440;-2.054;2024-01-06T07:10:14;7.45;;;2.40;;
77022;SDS011;65952;51.440;-2.054;2024-01-06T07:12:39;7.28;;;2.33;;
77022;SDS011;65952;51.440;-2.054;2024-01-06T07:15:05;5.97;;;2.20;;
77022;SDS011;65952;51.440;-2.054;2024-01-06T07:17:31;7.25;;;2.35;;
77022;SDS011;65952;51.440;-2.054;2024-01-06T07:19:56;5.97;;;2.65;;
77022;SDS011;65952;51.440;-2.054;2024-01-06T07:22:22;9.05;;;2.65;;
77022;SDS011;65952;51.440;-2.054;2024-01-06T07:24:47;7.63;;;2.38;;
77022;SDS011;65952;51.440;-2.054;2024-01-06T07:27:13;7.18;;;2.25;;
77022;SDS011;65952;51.440;-2.054;2024-01-06T07:29:38;7.78;;;2.25;;
77022;SDS011;65952;51.440;-2.054;2024-01-06T07:32:04;8.20;;;2.47;;
77022;SDS011;65952;51.440;-2.054;2024-01-06T07:34:31;6.10;;;2.13;;
77022;SDS011;65952;51.440;-2.054;2024-01-06T07:36:56;12.80;;;2.55;;
77022;SDS011;65952;51.440;-2.054;2024-01-06T07:39:22;7.65;;;2.60;;
77022;SDS011;65952;51.440;-2.054;2024-01-06T07:41:49;10.07;;;2.40;;
77022;SDS011;65952;51.440;-2.054;2024-01-06T07:44:15;5.07;;;2.42;;
77022;SDS011;65952;51.440;-2.054;2024-01-06T07:46:41;7.30;;;2.50;;
77022;SDS011;65952;51.440;-2.054;2024-01-06T07:49:06;6.00;;;2.40;;
77022;SDS011;65952;51.440;-2.054;2024-01-06T07:51:32;9.05;;;2.42;;
77022;SDS011;65952;51.440;-2.054;2024-01-06T07:53:59;7.75;;;2.22;;
77022;SDS011;65952;51.440;-2.054;2024-01-06T07:56:25;7.05;;;2.47;;
77022;SDS011;65952;51.440;-2.054;2024-01-06T07:58:51;5.35;;;2.20;;
77022;SDS011;65952;51.440;-2.054;2024-01-06T08:01:17;7.82;;;2.85;;
77022;SDS011;65952;51.440;-2.054;2024-01-06T08:03:43;8.18;;;2.70;;
77022;SDS011;65952;51.440;-2.054;2024-01-06T08:06:09;5.55;;;2.22;;
77022;SDS011;65952;51.440;-2.054;2024-01-06T08:08:35;5.88;;;2.47;;
77022;SDS011;65952;51.440;-2.054;2024-01-06T08:11:00;8.43;;;2.30;;
77022;SDS011;65952;51.440;-2.054;2024-01-06T08:13:26;5.88;;;2.35;;
77022;SDS011;65952;51.440;-2.054;2024-01-06T08:15:51;6.00;;;2.30;;
77022;SDS011;65952;51.440;-2.054;2024-01-06T08:18:17;7.97;;;2.55;;
77022;SDS011;65952;51.440;-2.054;2024-01-06T08:20:43;4.40;;;2.25;;
77022;SDS011;65952;51.440;-2.054;2024-01-06T08:23:08;6.18;;;2.72;;
77022;SDS011;65952;51.440;-2.054;2024-01-06T08:25:34;9.95;;;3.53;;
77022;SDS011;65952;51.440;-2.054;2024-01-06T08:27:59;8.50;;;2.80;;
77022;SDS011;65952;51.440;-2.054;2024-01-06T08:30:25;6.50;;;2.38;;
77022;SDS011;65952;51.440;-2.054;2024-01-06T08:32:50;7.90;;;2.08;;
77022;SDS011;65952;51.440;-2.054;2024-01-06T08:35:17;5.03;;;2.35;;
77022;SDS011;65952;51.440;-2.054;2024-01-06T08:37:42;10.60;;;2.78;;
77022;SDS011;65952;51.440;-2.054;2024-01-06T08:40:09;3.88;;;2.00;;
77022;SDS011;65952;51.440;-2.054;2024-01-06T08:42:35;6.18;;;2.13;;
77022;SDS011;65952;51.440;-2.054;2024-01-06T08:45:00;4.22;;;2.13;;
77022;SDS011;65952;51.440;-2.054;2024-01-06T08:47:25;6.25;;;2.10;;
77022;SDS011;65952;51.440;-2.054;2024-01-06T08:49:51;8.00;;;2.08;;
77022;SDS011;65952;51.440;-2.054;2024-01-06T08:52:17;8.05;;;2.20;;
77022;SDS011;65952;51.440;-2.054;2024-01-06T08:54:42;7.60;;;2.20;;
77022;SDS011;65952;51.440;-2.054;2024-01-06T08:57:07;7.07;;;2.88;;
77022;SDS011;65952;51.440;-2.054;2024-01-06T08:59:34;8.45;;;3.50;;
77022;SDS011;65952;51.440;-2.054;2024-01-06T09:01:59;7.65;;;2.45;;
77022;SDS011;65952;51.440;-2.054;2024-01-06T09:04:26;9.55;;;2.35;;
77022;SDS011;65952;51.440;-2.054;2024-01-06T09:06:51;6.50;;;2.10;;
77022;SDS011;65952;51.440;-2.054;2024-01-06T09:09:17;6.85;;;2.33;;
77022;SDS011;65952;51.440;-2.054;2024-01-06T09:11:42;6.10;;;2.08;;
77022;SDS011;65952;51.440;-2.054;2024-01-06T09:14:09;6.25;;;2.28;;
77022;SDS011;65952;51.440;-2.054;2024-01-06T09:16:35;3.65;;;2.00;;
77022;SDS011;65952;51.440;-2.054;2024-01-06T09:19:02;4.85;;;1.95;;
77022;SDS011;65952;51.440;-2.054;2024-01-06T09:21:27;3.60;;;1.83;;
77022;SDS011;65952;51.440;-2.054;2024-01-06T09:23:53;7.30;;;2.10;;
77022;SDS011;65952;51.440;-2.054;2024-01-06T09:26:18;4.78;;;2.03;;
77022;SDS011;65952;51.440;-2.054;2024-01-06T09:28:44;4.95;;;1.92;;
77022;SDS011;65952;51.440;-2.054;2024-01-06T09:31:12;5.28;;;1.88;;
77022;SDS011;65952;51.440;-2.054;2024-01-06T09:33:38;6.60;;;2.20;;
77022;SDS011;65952;51.440;-2.054;2024-01-06T09:36:04;5.50;;;2.10;;
77022;SDS011;65952;51.440;-2.054;2024-01-06T09:38:31;5.53;;;2.05;;
77022;SDS011;65952;51.440;-2.054;2024-01-06T09:40:56;4.47;;;1.83;;
77022;SDS011;65952;51.440;-2.054;2024-01-06T09:43:23;6.90;;;2.60;;
77022;SDS011;65952;51.440;-2.054;2024-01-06T09:45:52;5.57;;;2.00;;
77022;SDS011;65952;51.440;-2.054;2024-01-06T09:48:22;6.50;;;2.30;;
77022;SDS011;65952;51.440;-2.054;2024-01-06T09:50:54;6.57;;;2.38;;
77022;SDS011;65952;51.440;-2.054;2024-01-06T09:53:23;5.50;;;2.22;;
77022;SDS011;65952;51.440;-2.054;2024-01-06T09:55:53;5.73;;;2.20;;
77022;SDS011;65952;51.440;-2.054;2024-01-06T09:58:20;7.30;;;2.10;;
77022;SDS011;65952;51.440;-2.054;2024-01-06T10:00:48;9.00;;;2.20;;
77022;SDS011;65952;51.440;-2.054;2024-01-06T10:03:14;8.18;;;3.28;;
77022;SDS011;65952;51.440;-2.054;2024-01-06T10:05:40;4.55;;;2.13;;
77022;SDS011;65952;51.440;-2.054;2024-01-06T10:08:05;5.55;;;2.15;;
77022;SDS011;65952;51.440;-2.054;2024-01-06T10:10:32;3.65;;;1.88;;
77022;SDS011;65952;51.440;-2.054;2024-01-06T10:12:59;6.10;;;2.10;;
77022;SDS011;65952;51.440;-2.054;2024-01-06T10:15:25;4.78;;;2.15;;
77022;SDS011;65952;51.440;-2.054;2024-01-06T10:17:50;5.47;;;2.15;;
77022;SDS011;65952;51.440;-2.054;2024-01-06T10:20:19;6.05;;;2.00;;
77022;SDS011;65952;51.440;-2.054;2024-01-06T10:22:46;7.80;;;2.00;;
77022;SDS011;65952;51.440;-2.054;2024-01-06T10:25:11;3.97;;;2.00;;
77022;SDS011;65952;51.440;-2.054;2024-01-06T10:27:37;4.38;;;1.98;;
77022;SDS011;65952;51.440;-2.054;2024-01-06T10:30:04;6.00;;;1.80;;
77022;SDS011;65952;51.440;-2.054;2024-01-06T10:32:34;6.63;;;1.90;;
77022;SDS011;65952;51.440;-2.054;2024-01-06T10:35:01;5.00;;;1.90;;
77022;SDS011;65952;51.440;-2.054;2024-01-06T10:37:28;6.40;;;2.10;;
77022;SDS011;65952;51.440;-2.054;2024-01-06T10:42:32;6.47;;;2.20;;
77022;SDS011;65952;51.440;-2.054;2024-01-06T10:44:58;4.72;;;2.33;;
77022;SDS011;65952;51.440;-2.054;2024-01-06T10:47:24;5.50;;;2.10;;
77022;SDS011;65952;51.440;-2.054;2024-01-06T10:49:51;3.25;;;1.73;;
77022;SDS011;65952;51.440;-2.054;2024-01-06T10:52:19;5.78;;;2.13;;
77022;SDS011;65952;51.440;-2.054;2024-01-06T10:54:46;3.60;;;1.92;;
77022;SDS011;65952;51.440;-2.054;2024-01-06T10:57:15;4.40;;;1.80;;
77022;SDS011;65952;51.440;-2.054;2024-01-06T10:59:43;6.15;;;2.40;;
77022;SDS011;65952;51.440;-2.054;2024-01-06T11:02:12;7.38;;;2.15;;
77022;SDS011;65952;51.440;-2.054;2024-01-06T11:04:38;4.45;;;2.00;;
77022;SDS011;65952;51.440;-2.054;2024-01-06T11:07:05;3.95;;;2.00;;
77022;SDS011;65952;51.440;-2.054;2024-01-06T11:09:32;6.80;;;2.17;;
77022;SDS011;65952;51.440;-2.054;2024-01-06T11:12:00;4.68;;;1.92;;
77022;SDS011;65952;51.440;-2.054;2024-01-06T11:14:26;3.25;;;1.80;;
77022;SDS011;65952;51.440;-2.054;2024-01-06T11:16:58;3.95;;;2.03;;
77022;SDS011;65952;51.440;-2.054;2024-01-06T11:24:56;3.78;;;1.80;;
77022;SDS011;65952;51.440;-2.054;2024-01-06T11:27:28;5.80;;;2.00;;
77022;SDS011;65952;51.440;-2.054;2024-01-06T11:29:54;5.10;;;2.00;;
77022;SDS011;65952;51.440;-2.054;2024-01-06T11:32:30;5.03;;;2.03;;
77022;SDS011;65952;51.440;-2.054;2024-01-06T11:35:08;7.03;;;3.10;;
77022;SDS011;65952;51.440;-2.054;2024-01-06T11:37:36;6.68;;;2.13;;
77022;SDS011;65952;51.440;-2.054;2024-01-06T11:42:56;6.57;;;2.30;;
77022;SDS011;65952;51.440;-2.054;2024-01-06T11:45:30;6.95;;;2.35;;
77022;SDS011;65952;51.440;-2.054;2024-01-06T11:48:01;5.78;;;2.40;;
77022;SDS011;65952;51.440;-2.054;2024-01-06T11:50:31;4.95;;;1.92;;
77022;SDS011;65952;51.440;-2.054;2024-01-06T11:53:00;7.67;;;2.53;;
77022;SDS011;65952;51.440;-2.054;2024-01-06T11:55:26;7.47;;;2.28;;
77022;SDS011;65952;51.440;-2.054;2024-01-06T11:57:58;4.20;;;2.30;;
77022;SDS011;65952;51.440;-2.054;2024-01-06T12:00:28;4.00;;;2.15;;
77022;SDS011;65952;51.440;-2.054;2024-01-06T12:02:57;5.60;;;2.30;;
77022;SDS011;65952;51.440;-2.054;2024-01-06T12:05:24;6.75;;;2.30;;
77022;SDS011;65952;51.440;-2.054;2024-01-06T12:08:01;6.80;;;2.67;;
77022;SDS011;65952;51.440;-2.054;2024-01-06T12:10:32;4.68;;;2.50;;
77022;SDS011;65952;51.440;-2.054;2024-01-06T12:15:25;5.45;;;2.75;;
77022;SDS011;65952;51.440;-2.054;2024-01-06T12:17:50;9.10;;;3.58;;
77022;SDS011;65952;51.440;-2.054;2024-01-06T12:20:16;5.18;;;2.60;;
77022;SDS011;65952;51.440;-2.054;2024-01-06T12:22:42;7.55;;;2.72;;
77022;SDS011;65952;51.440;-2.054;2024-01-06T12:25:09;4.65;;;2.42;;
77022;SDS011;65952;51.440;-2.054;2024-01-06T12:27:34;5.05;;;2.33;;
77022;SDS011;65952;51.440;-2.054;2024-01-06T12:30:00;8.23;;;2.50;;
77022;SDS011;65952;51.440;-2.054;2024-01-06T12:32:26;4.88;;;2.90;;
77022;SDS011;65952;51.440;-2.054;2024-01-06T12:34:51;4.57;;;2.40;;
77022;SDS011;65952;51.440;-2.054;2024-01-06T12:37:16;8.43;;;2.88;;
77022;SDS011;65952;51.440;-2.054;2024-01-06T12:39:42;4.43;;;2.22;;
77022;SDS011;65952;51.440;-2.054;2024-01-06T12:42:10;4.80;;;2.47;;
77022;SDS011;65952;51.440;-2.054;2024-01-06T12:44:36;6.00;;;2.40;;
77022;SDS011;65952;51.440;-2.054;2024-01-06T12:47:09;6.10;;;2.67;;
77022;SDS011;65952;51.440;-2.054;2024-01-06T12:49:37;5.63;;;2.53;;
77022;SDS011;65952;51.440;-2.054;2024-01-06T12:52:03;4.53;;;2.28;;
77022;SDS011;65952;51.440;-2.054;2024-01-06T12:54:29;6.20;;;2.50;;
77022;SDS011;65952;51.440;-2.054;2024-01-06T12:56:54;4.32;;;2.50;;
77022;SDS011;65952;51.440;-2.054;2024-01-06T12:59:20;6.20;;;2.55;;
77022;SDS011;65952;51.440;-2.054;2024-01-06T13:01:45;4.57;;;2.45;;
77022;SDS011;65952;51.440;-2.054;2024-01-06T13:04:10;4.57;;;2.50;;
77022;SDS011;65952;51.440;-2.054;2024-01-06T13:06:36;6.68;;;2.75;;
77022;SDS011;65952;51.440;-2.054;2024-01-06T13:09:01;5.38;;;2.60;;
77022;SDS011;65952;51.440;-2.054;2024-01-06T13:11:31;8.80;;;3.17;;
77022;SDS011;65952;51.440;-2.054;2024-01-06T13:13:59;5.38;;;2.75;;
77022;SDS011;65952;51.440;-2.054;2024-01-06T13:16:24;7.57;;;2.50;;
77022;SDS011;65952;51.440;-2.054;2024-01-06T13:18:50;5.97;;;2.33;;
77022;SDS011;65952;51.440;-2.054;2024-01-06T13:21:15;6.18;;;2.72;;
77022;SDS011;65952;51.440;-2.054;2024-01-06T13:23:41;5.00;;;2.80;;
77022;SDS011;65952;51.440;-2.054;2024-01-06T13:26:06;5.57;;;3.03;;
77022;SDS011;65952;51.440;-2.054;2024-01-06T13:28:33;6.18;;;3.30;;
77022;SDS011;65952;51.440;-2.054;2024-01-06T13:30:59;5.57;;;3.22;;
77022;SDS011;65952;51.440;-2.054;2024-01-06T13:33:25;4.47;;;2.40;;
77022;SDS011;65952;51.440;-2.054;2024-01-06T13:35:51;5.80;;;2.42;;
77022;SDS011;65952;51.440;-2.054;2024-01-06T13:38:16;5.00;;;2.45;;
77022;SDS011;65952;51.440;-2.054;2024-01-06T13:40:41;4.95;;;2.33;;
77022;SDS011;65952;51.440;-2.054;2024-01-06T13:43:07;5.85;;;2.72;;
77022;SDS011;65952;51.440;-2.054;2024-01-06T13:45:35;4.72;;;2.58;;
77022;SDS011;65952;51.440;-2.054;2024-01-06T13:48:00;6.45;;;2.70;;
77022;SDS011;65952;51.440;-2.054;2024-01-06T13:50:27;7.03;;;2.67;;
77022;SDS011;65952;51.440;-2.054;2024-01-06T13:52:52;7.97;;;2.53;;
77022;SDS011;65952;51.440;-2.054;2024-01-06T13:55:19;4.88;;;2.60;;
77022;SDS011;65952;51.440;-2.054;2024-01-06T13:57:44;4.63;;;2.20;;
77022;SDS011;65952;51.440;-2.054;2024-01-06T14:00:10;4.13;;;2.22;;
77022;SDS011;65952;51.440;-2.054;2024-01-06T14:02:36;4.47;;;2.20;;
77022;SDS011;65952;51.440;-2.054;2024-01-06T14:05:03;4.95;;;2.63;;
77022;SDS011;65952;51.440;-2.054;2024-01-06T14:07:29;6.82;;;3.05;;
77022;SDS011;65952;51.440;-2.054;2024-01-06T14:09:55;4.15;;;2.53;;
77022;SDS011;65952;51.440;-2.054;2024-01-06T14:12:20;5.65;;;3.33;;
77022;SDS011;65952;51.440;-2.054;2024-01-06T14:14:46;6.38;;;3.28;;
77022;SDS011;65952;51.440;-2.054;2024-01-06T14:17:11;5.90;;;2.90;;
77022;SDS011;65952;51.440;-2.054;2024-01-06T14:19:37;5.47;;;2.83;;
77022;SDS011;65952;51.440;-2.054;2024-01-06T14:22:02;5.68;;;2.85;;
77022;SDS011;65952;51.440;-2.054;2024-01-06T14:24:29;5.88;;;3.13;;
77022;SDS011;65952;51.440;-2.054;2024-01-06T14:26:56;6.47;;;3.45;;
77022;SDS011;65952;51.440;-2.054;2024-01-06T14:29:22;5.47;;;3.25;;
77022;SDS011;65952;51.440;-2.054;2024-01-06T14:31:47;6.43;;;3.00;;
77022;SDS011;65952;51.440;-2.054;2024-01-06T14:34:13;4.28;;;2.53;;
77022;SDS011;65952;51.440;-2.054;2024-01-06T14:36:38;4.03;;;2.60;;
77022;SDS011;65952;51.440;-2.054;2024-01-06T14:39:05;6.35;;;2.55;;
77022;SDS011;65952;51.440;-2.054;2024-01-06T14:41:31;5.05;;;2.70;;